Time;durP1;ratioP1;P1;durP2;ratioP2;P2;SDS_P1;SDS_P2;PMS_P1;PMS_P2;Temp;Humidity;BMP_temperature;BMP_pressure;BME280_temperature;BME280_humidity;BME280_pressure;Samples;Min_cycle;Max_cycle;Signal;HPM_P1;HPM_P2
2024/03/11 00:01:45;;;;;;;18.10;15.80;;;;;;;7.97;100.00;97876.35;108926;1260;59195;-75
2024/03/11 00:04:12;;;;;;;17.70;14.00;;;;;;;7.95;100.00;97871.58;108935;1260;59332;-75
2024/03/11 00:06:40;;;;;;;16.60;14.30;;;;;;;7.93;100.00;97864.70;108896;1260;59048;-75
2024/03/11 00:09:19;;;;;;;17.70;14.90;;;;;;;7.89;100.00;97854.00;108931;1260;59426;-75
2024/03/11 00:11:55;;;;;;;16.70;14.70;;;;;;;7.86;100.00;97849.93;108955;1260;66045;-74
2024/03/11 00:14:28;;;;;;;16.20;14.10;;;;;;;7.83;100.00;97850.67;108936;1260;59992;-74
2024/03/11 00:16:57;;;;;;;19.30;15.00;;;;;;;7.82;100.00;97841.59;108899;1260;63809;-74
2024/03/11 00:19:28;;;;;;;18.80;15.50;;;;;;;7.80;100.00;97838.88;108873;1260;59377;-74
2024/03/11 00:21:58;;;;;;;16.10;14.20;;;;;;;7.79;100.00;97847.14;108724;1260;58962;-75
2024/03/11 00:24:25;;;;;;;17.70;15.70;;;;;;;7.77;100.00;97849.89;108903;1260;66073;-75
2024/03/11 00:26:52;;;;;;;17.40;14.50;;;;;;;7.77;100.00;97859.11;108929;1260;60127;-75
2024/03/11 00:29:19;;;;;;;18.30;14.50;;;;;;;7.77;100.00;97869.52;108894;1260;64101;-75
2024/03/11 00:31:46;;;;;;;17.50;13.90;;;;;;;7.78;100.00;97871.26;108690;1260;59119;-75
2024/03/11 00:34:22;;;;;;;16.40;14.40;;;;;;;7.78;100.00;97873.94;108919;1260;59016;-75
2024/03/11 00:36:49;;;;;;;15.90;14.20;;;;;;;7.78;100.00;97869.70;108923;1262;64532;-75
2024/03/11 00:39:15;;;;;;;17.10;13.60;;;;;;;7.77;100.00;97867.25;108922;1260;59022;-75
2024/03/11 00:41:42;;;;;;;15.70;13.80;;;;;;;7.77;100.00;97860.70;108912;1260;59106;-75
2024/03/11 00:44:08;;;;;;;17.40;13.60;;;;;;;7.77;100.00;97854.54;108906;1260;58963;-75
2024/03/11 00:46:35;;;;;;;15.60;13.40;;;;;;;7.76;100.00;97855.28;108885;1260;58893;-76
2024/03/11 00:49:02;;;;;;;15.60;13.90;;;;;;;7.76;100.00;97852.10;108915;1260;59423;-76
2024/03/11 00:51:31;;;;;;;16.00;14.30;;;;;;;7.76;100.00;97852.10;108910;1260;60477;-76
2024/03/11 00:53:57;;;;;;;16.20;13.30;;;;;;;7.76;100.00;97855.63;108911;1260;64063;-75
2024/03/11 00:56:24;;;;;;;15.50;13.80;;;;;;;7.77;100.00;97854.52;108894;1260;58964;-76
2024/03/11 00:58:52;;;;;;;16.50;13.50;;;;;;;7.77;100.00;97852.73;108895;1260;58912;-76
2024/03/11 01:01:19;;;;;;;15.60;13.90;;;;;;;7.77;100.00;97853.11;108770;1260;66134;-76
2024/03/11 01:03:45;;;;;;;16.50;12.70;;;;;;;7.77;100.00;97854.02;108952;1260;60210;-76
2024/03/11 01:06:12;;;;;;;16.00;13.20;;;;;;;7.76;100.00;97852.97;108913;1260;59080;-75
2024/03/11 01:08:38;;;;;;;15.20;13.50;;;;;;;7.76;100.00;97847.69;108752;1260;59053;-75
2024/03/11 01:11:05;;;;;;;14.70;12.80;;;;;;;7.75;100.00;97845.98;108939;1260;59154;-75
2024/03/11 01:13:32;;;;;;;16.50;13.10;;;;;;;7.75;100.00;97849.73;108914;1260;59026;-75
2024/03/11 01:15:58;;;;;;;16.00;12.40;;;;;;;7.74;100.00;97849.23;108902;1260;60153;-75
2024/03/11 01:18:25;;;;;;;16.40;13.60;;;;;;;7.74;100.00;97849.63;108888;1259;63772;-76
2024/03/11 01:20:51;;;;;;;16.80;14.00;;;;;;;7.73;100.00;97846.85;108910;1260;59009;-75
2024/03/11 01:23:20;;;;;;;13.80;12.00;;;;;;;7.73;100.00;97845.12;108926;1260;59234;-76
2024/03/11 01:25:46;;;;;;;15.80;13.10;;;;;;;7.71;100.00;97843.42;108885;1260;65820;-75
2024/03/11 01:28:13;;;;;;;17.20;13.50;;;;;;;7.72;100.00;97837.07;108923;1260;59228;-75
2024/03/11 01:30:39;;;;;;;17.80;13.80;;;;;;;7.72;100.00;97832.64;108890;1260;62843;-76
2024/03/11 01:33:06;;;;;;;15.30;12.70;;;;;;;7.71;100.00;97820.30;108921;1260;59048;-76
2024/03/11 01:35:34;;;;;;;15.00;12.20;;;;;;;7.69;100.00;97820.11;108886;1260;58978;-75
2024/03/11 01:38:00;;;;;;;16.40;13.10;;;;;;;7.67;100.00;97818.48;108904;1260;64859;-75
2024/03/11 01:40:27;;;;;;;15.00;12.90;;;;;;;7.65;100.00;97814.20;108947;1260;59469;-75
2024/03/11 01:42:54;;;;;;;17.10;14.10;;;;;;;7.63;100.00;97815.20;108902;1260;65262;-74
2024/03/11 01:45:24;;;;;;;15.40;12.40;;;;;;;7.63;100.00;97809.07;108892;1260;58975;-75
2024/03/11 01:47:52;;;;;;;15.50;13.50;;;;;;;7.63;100.00;97808.68;108940;1260;60299;-75
2024/03/11 01:50:18;;;;;;;16.30;12.80;;;;;;;7.63;100.00;97809.94;108893;1260;65938;-75
2024/03/11 01:52:56;;;;;;;15.10;13.10;;;;;;;7.62;100.00;97806.84;108934;1260;59826;-75
2024/03/11 01:55:25;;;;;;;16.60;13.40;;;;;;;7.62;100.00;97802.95;108919;1260;62868;-76
2024/03/11 01:57:54;;;;;;;14.10;12.60;;;;;;;7.61;100.00;97801.73;108919;1260;59349;-76
2024/03/11 02:00:22;;;;;;;14.00;12.50;;;;;;;7.62;100.00;97804.21;108933;1260;59040;-75
2024/03/11 02:02:51;;;;;;;13.50;11.90;;;;;;;7.62;100.00;97803.27;108936;1260;67173;-75
2024/03/11 02:05:19;;;;;;;14.00;12.20;;;;;;;7.63;100.00;97797.35;108927;1260;59985;-75
2024/03/11 02:07:50;;;;;;;13.00;11.50;;;;;;;7.64;100.00;97797.10;108942;1260;62879;-76
2024/03/11 02:10:19;;;;;;;14.00;12.10;;;;;;;7.66;100.00;97802.31;108900;1260;58977;-76
2024/03/11 02:12:46;;;;;;;14.10;11.90;;;;;;;7.67;100.00;97804.69;108898;1260;59180;-75
2024/03/11 02:15:14;;;;;;;15.10;11.90;;;;;;;7.68;100.00;97806.02;108913;1260;64685;-75
2024/03/11 02:17:42;;;;;;;13.00;10.50;;;;;;;7.70;100.00;97804.27;108907;1260;59256;-75
2024/03/11 02:20:16;;;;;;;15.20;11.30;;;;;;;7.71;100.00;97804.89;108911;1260;65228;-74
2024/03/11 02:22:50;;;;;;;13.70;12.20;;;;;;;7.72;100.00;97800.26;108895;1260;59044;-75
2024/03/11 02:25:19;;;;;;;13.30;11.70;;;;;;;7.73;100.00;97798.45;108933;1260;58985;-75
2024/03/11 02:27:48;;;;;;;13.10;11.70;;;;;;;7.73;100.00;97791.86;108825;1260;66053;-75
2024/03/11 02:30:18;;;;;;;14.70;11.00;;;;;;;7.74;100.00;97787.93;108918;1260;60137;-75
2024/03/11 02:32:45;;;;;;;12.90;11.40;;;;;;;7.74;100.00;97784.35;108910;1260;62843;-75
2024/03/11 02:35:12;;;;;;;13.30;11.50;;;;;;;7.74;100.00;97778.90;108889;1260;59051;-74
2024/03/11 02:37:38;;;;;;;13.40;11.40;;;;;;;7.74;100.00;97776.77;108747;1260;59082;-75
2024/03/11 02:40:09;;;;;;;13.30;11.10;;;;;;;7.73;100.00;97770.29;108914;1263;58954;-74
2024/03/11 02:42:36;;;;;;;13.80;12.10;;;;;;;7.73;100.00;97773.85;108925;1260;60150;-74
2024/03/11 02:45:05;;;;;;;15.40;12.60;;;;;;;7.72;100.00;97771.45;108766;1260;62628;-74
2024/03/11 02:47:32;;;;;;;15.60;12.80;;;;;;;7.70;100.00;97767.30;108878;1260;59187;-74
2024/03/11 02:49:58;;;;;;;14.90;12.30;;;;;;;7.68;100.00;97765.33;108951;1260;58979;-74
2024/03/11 02:52:26;;;;;;;14.60;12.00;;;;;;;7.66;100.00;97765.54;108912;1260;59600;-75
2024/03/11 02:54:53;;;;;;;14.00;11.60;;;;;;;7.63;100.00;97763.99;108930;1260;60085;-73
2024/03/11 02:57:20;;;;;;;12.90;11.60;;;;;;;7.61;100.00;97763.98;108920;1260;64139;-74
2024/03/11 02:59:46;;;;;;;14.80;11.90;;;;;;;7.58;100.00;97761.86;108873;1260;58956;-74
2024/03/11 03:02:13;;;;;;;14.70;12.50;;;;;;;7.57;100.00;97761.81;108912;1260;58899;-74
2024/03/11 03:04:39;;;;;;;14.20;12.70;;;;;;;7.55;100.00;97756.11;108910;1260;59245;-75
2024/03/11 03:07:06;;;;;;;15.60;12.30;;;;;;;7.53;100.00;97751.64;108939;1260;59359;-74
2024/03/11 03:09:36;;;;;;;13.20;11.50;;;;;;;7.53;100.00;97754.66;108742;1260;64080;-74
2024/03/11 03:12:03;;;;;;;16.90;12.90;;;;;;;7.53;100.00;97762.77;108870;1260;59054;-74
2024/03/11 03:14:30;;;;;;;15.60;12.30;;;;;;;7.54;100.00;97762.58;108891;1260;59057;-74
2024/03/11 03:16:57;;;;;;;14.90;11.90;;;;;;;7.54;100.00;97758.16;108926;1260;66064;-75
2024/03/11 03:19:23;;;;;;;15.30;12.70;;;;;;;7.54;100.00;97759.01;108877;1260;59396;-75
2024/03/11 03:21:50;;;;;;;15.60;12.80;;;;;;;7.54;100.00;97759.84;108896;1260;62834;-75
2024/03/11 03:24:16;;;;;;;13.50;11.30;;;;;;;7.55;100.00;97761.42;108909;1260;59131;-75
2024/03/11 03:26:43;;;;;;;14.80;12.20;;;;;;;7.54;100.00;97760.94;108913;1260;59094;-74
2024/03/11 03:29:11;;;;;;;16.00;11.40;;;;;;;7.54;100.00;97765.05;108678;1260;64543;-74
2024/03/11 03:31:37;;;;;;;13.50;11.30;;;;;;;7.54;100.00;97771.03;108938;1260;61365;-75
2024/03/11 03:34:09;;;;;;;11.80;10.50;;;;;;;7.54;100.00;97774.53;108904;1260;65281;-75
2024/03/11 03:36:35;;;;;;;13.80;12.10;;;;;;;7.56;100.00;97773.55;108738;1260;59080;-75
2024/03/11 03:39:03;;;;;;;14.90;11.30;;;;;;;7.57;100.00;97767.40;108926;1260;58891;-75
2024/03/11 03:41:29;;;;;;;13.20;11.70;;;;;;;7.59;100.00;97767.48;108912;1260;67204;-75
2024/03/11 03:43:56;;;;;;;13.40;11.60;;;;;;;7.61;100.00;97770.34;108889;1260;58954;-76
2024/03/11 03:46:23;;;;;;;14.80;13.10;;;;;;;7.63;100.00;97764.52;108886;1260;59206;-75
2024/03/11 03:48:49;;;;;;;14.60;11.80;;;;;;;7.63;100.00;97764.50;108931;1259;59004;-75
2024/03/11 03:51:16;;;;;;;11.80;10.60;;;;;;;7.63;100.00;97765.37;108983;1260;59052;-75
2024/03/11 03:53:42;;;;;;;13.90;11.50;;;;;;;7.63;100.00;97763.08;108913;1260;59044;-74
2024/03/11 03:56:10;;;;;;;13.00;11.60;;;;;;;7.64;100.00;97762.85;108936;1260;58914;-75
2024/03/11 03:58:36;;;;;;;13.00;11.50;;;;;;;7.65;100.00;97761.52;108931;1260;63763;-74
2024/03/11 04:01:03;;;;;;;13.10;11.10;;;;;;;7.67;100.00;97760.15;108966;1260;59269;-75
2024/03/11 04:03:30;;;;;;;11.80;10.70;;;;;;;7.70;100.00;97769.45;108889;1260;59043;-75
2024/03/11 04:05:57;;;;;;;11.30;10.00;;;;;;;7.72;100.00;97772.50;108859;1260;64716;-75
2024/03/11 04:08:23;;;;;;;12.90;11.10;;;;;;;7.75;100.00;97772.46;108964;1260;59070;-75
2024/03/11 04:10:50;;;;;;;13.10;10.60;;;;;;;7.77;100.00;97776.05;108931;1260;59085;-75
2024/03/11 04:13:17;;;;;;;12.40;11.10;;;;;;;7.77;100.00;97777.77;108949;1259;58995;-75
2024/03/11 04:15:44;;;;;;;13.60;11.30;;;;;;;7.78;100.00;97775.98;108934;1261;60393;-75
2024/03/11 04:18:10;;;;;;;14.30;12.40;;;;;;;7.78;100.00;97778.63;108960;1259;66458;-75
2024/03/11 04:20:37;;;;;;;14.10;12.00;;;;;;;7.78;100.00;97778.10;108940;1260;59303;-75
2024/03/11 04:23:07;;;;;;;13.50;10.80;;;;;;;7.78;100.00;97777.51;108932;1259;64133;-75
2024/03/11 04:25:38;;;;;;;13.30;11.40;;;;;;;7.80;100.00;97778.80;108913;1260;58987;-75
2024/03/11 04:28:05;;;;;;;13.70;11.40;;;;;;;7.82;100.00;97783.45;108942;1259;59301;-75
2024/03/11 04:30:41;;;;;;;14.10;10.80;;;;;;;7.84;100.00;97794.22;108971;1259;65133;-75
2024/03/11 04:33:08;;;;;;;14.90;12.30;;;;;;;7.86;100.00;97803.99;108742;1260;59014;-75
2024/03/11 04:35:35;;;;;;;15.50;11.60;;;;;;;7.86;100.00;97812.08;108953;1259;63814;-76
2024/03/11 04:38:04;;;;;;;14.00;12.30;;;;;;;7.87;100.00;97812.22;108910;1260;58979;-75
2024/03/11 04:40:38;;;;;;;14.60;12.00;;;;;;;7.88;100.00;97820.14;108962;1259;59145;-74
2024/03/11 04:43:05;;;;;;;13.40;12.10;;;;;;;7.87;100.00;97825.44;108930;1260;64508;-75
2024/03/11 04:45:32;;;;;;;16.50;12.20;;;;;;;7.86;100.00;97822.34;108948;1260;59116;-75
2024/03/11 04:48:00;;;;;;;15.20;13.10;;;;;;;7.85;100.00;97827.41;108951;1259;64040;-75
2024/03/11 04:50:30;;;;;;;14.40;12.90;;;;;;;7.83;100.00;97838.83;108943;1260;59013;-76
2024/03/11 04:52:58;;;;;;;;;;;;;;;7.82;100.00;97842.48;108977;1259;59074;-75
2024/03/11 04:55:28;;;;;;;15.70;12.90;;;;;;;7.79;100.00;97846.95;108972;1259;65740;-75
2024/03/11 04:57:55;;;;;;;15.70;13.20;;;;;;;7.77;100.00;97848.90;108931;1260;60026;-75
2024/03/11 05:00:26;;;;;;;16.40;14.00;;;;;;;7.75;100.00;97844.43;108890;1260;64197;-76
2024/03/11 05:02:53;;;;;;;17.10;14.50;;;;;;;7.73;100.00;97846.69;108821;1260;59011;-75
2024/03/11 05:05:21;;;;;;;17.40;15.10;;;;;;;7.71;100.00;97848.76;108939;1260;59000;-76
2024/03/11 05:07:49;;;;;;;19.70;15.30;;;;;;;7.69;100.00;97847.68;108950;1260;65890;-75
2024/03/11 05:10:16;;;;;;;19.80;16.70;;;;;;;7.67;100.00;97852.03;108951;1260;60182;-75
2024/03/11 05:12:44;;;;;;;19.90;16.30;;;;;;;7.66;100.00;97853.87;108923;1260;64001;-75
2024/03/11 05:15:10;;;;;;;19.60;16.20;;;;;;;7.66;100.00;97852.99;108944;1260;58966;-76
2024/03/11 05:17:37;;;;;;;19.70;17.10;;;;;;;7.66;100.00;97855.12;108938;1260;58990;-75
2024/03/11 05:20:11;;;;;;;18.20;15.60;;;;;;;7.67;100.00;97855.80;108747;1260;65980;-76
2024/03/11 05:22:38;;;;;;;18.90;16.50;;;;;;;7.67;100.00;97851.02;108842;1260;60128;-75
2024/03/11 05:25:08;;;;;;;17.90;16.00;;;;;;;7.67;100.00;97854.52;108933;1260;72811;-76
2024/03/11 05:27:38;;;;;;;18.80;16.60;;;;;;;7.68;100.00;97854.64;108951;1260;58979;-76
2024/03/11 05:30:05;;;;;;;19.20;16.30;;;;;;;7.68;100.00;97856.04;108958;1260;59204;-76
2024/03/11 05:32:32;;;;;;;18.50;16.60;;;;;;;7.69;100.00;97860.58;108972;1260;64989;-75
2024/03/11 05:34:58;;;;;;;20.00;17.50;;;;;;;7.70;100.00;97862.80;108969;1260;59052;-75
2024/03/11 05:37:26;;;;;;;23.00;17.70;;;;;;;7.71;100.00;97865.73;108962;1259;59042;-75
2024/03/11 05:39:54;;;;;;;21.80;18.40;;;;;;;7.72;100.00;97864.24;108960;1260;59386;-75
2024/03/11 05:42:21;;;;;;;20.30;17.20;;;;;;;7.74;100.00;97865.52;108937;1259;58926;-76
2024/03/11 05:44:48;;;;;;;19.40;17.40;;;;;;;7.76;100.00;97866.99;108958;1260;64493;-75
2024/03/11 05:47:15;;;;;;;19.10;17.10;;;;;;;7.76;100.00;97868.20;108808;1260;60521;-76
2024/03/11 05:49:42;;;;;;;17.10;15.30;;;;;;;7.77;100.00;97870.63;108930;1260;62872;-75
2024/03/11 05:52:12;;;;;;;19.10;16.80;;;;;;;7.78;100.00;97873.19;108951;1260;59225;-75
2024/03/11 05:54:39;;;;;;;;;;;;;;;7.78;100.00;97874.92;108791;1260;59178;-76
2024/03/11 05:57:05;;;;;;;19.90;16.40;;;;;;;7.78;100.00;97880.79;108821;1260;58963;-76
2024/03/11 05:59:32;;;;;;;18.30;16.40;;;;;;;7.79;100.00;97880.92;108975;1259;59086;-75
2024/03/11 06:01:59;;;;;;;21.10;18.70;;;;;;;7.79;100.00;97883.87;108940;1260;63731;-75
2024/03/11 06:04:26;;;;;;;20.60;18.40;;;;;;;7.80;100.00;97884.54;108937;1260;58948;-75
2024/03/11 06:06:54;;;;;;;19.00;17.00;;;;;;;7.81;100.00;97883.59;108973;1260;59835;-75
2024/03/11 06:09:20;;;;;;;20.10;17.80;;;;;;;7.82;100.00;97880.33;108804;1260;64636;-76
2024/03/11 06:11:50;;;;;;;22.10;17.80;;;;;;;7.83;100.00;97876.54;108977;1260;59273;-75
2024/03/11 06:14:17;;;;;;;19.50;17.30;;;;;;;7.86;100.00;97880.91;108812;1259;64103;-76
2024/03/11 06:16:45;;;;;;;19.00;16.70;;;;;;;7.88;100.00;97882.66;108960;1260;59195;-75
2024/03/11 06:19:17;;;;;;;18.90;16.90;;;;;;;7.91;100.00;97884.58;108946;1260;59027;-76
2024/03/11 06:21:44;;;;;;;18.40;16.60;;;;;;;7.94;100.00;97885.66;108882;1260;65733;-78
2024/03/11 06:24:11;;;;;;;18.80;16.00;;;;;;;7.95;100.00;97880.79;108853;1260;59440;-74
2024/03/11 06:26:37;;;;;;;21.30;16.80;;;;;;;7.96;100.00;97881.42;108876;1260;64467;-73
2024/03/11 06:29:08;;;;;;;18.40;16.40;;;;;;;7.98;100.00;97881.48;108843;1264;58962;-75
2024/03/11 06:31:37;;;;;;;18.60;15.90;;;;;;;8.00;100.00;97884.30;108861;1261;58995;-76
2024/03/11 06:34:06;;;;;;;18.60;16.60;;;;;;;8.01;100.00;97891.99;108871;1260;65844;-75
2024/03/11 06:36:34;;;;;;;22.00;15.80;;;;;;;8.02;100.00;97900.05;108831;1260;59040;-76
2024/03/11 06:39:02;;;;;;;18.80;15.70;;;;;;;8.04;100.00;97900.96;108847;1260;64157;-76
2024/03/11 06:41:28;;;;;;;18.30;15.40;;;;;;;8.07;100.00;97905.52;108891;1260;59034;-80
2024/03/11 06:43:55;;;;;;;17.80;15.40;;;;;;;8.10;100.00;97912.21;108870;1260;58970;-78
2024/03/11 06:46:24;;;;;;;15.70;14.00;;;;;;;8.14;100.00;97915.83;108897;1260;59405;-82
2024/03/11 06:48:50;;;;;;;17.60;15.30;;;;;;;8.19;100.00;97917.39;108901;1260;59471;-75
2024/03/11 06:51:17;;;;;;;19.00;15.90;;;;;;;8.23;100.00;97917.58;108907;1260;59175;-78
2024/03/11 06:53:44;;;;;;;19.20;15.00;;;;;;;8.29;100.00;97915.04;108851;1264;59078;-76
2024/03/11 06:56:11;;;;;;;16.30;14.60;;;;;;;8.36;100.00;97915.91;108873;1260;58971;-78
2024/03/11 06:58:41;;;;;;;18.00;16.00;;;;;;;8.44;100.00;97922.08;108917;1260;65724;-81
2024/03/11 07:01:10;;;;;;;;;;;;;;;8.52;100.00;97930.30;108920;1260;59264;-84
2024/03/11 07:03:37;;;;;;;16.80;13.60;;;;;;;8.59;100.00;97930.34;108899;1260;64175;-73
2024/03/11 07:06:05;;;;;;;17.40;14.40;;;;;;;8.65;100.00;97932.52;108882;1260;59317;-74
2024/03/11 07:08:36;;;;;;;15.90;14.20;;;;;;;8.74;100.00;97932.05;108919;1260;59382;-73
2024/03/11 07:11:03;;;;;;;15.80;14.10;;;;;;;8.85;100.00;97934.55;108913;1260;66427;-74
2024/03/11 07:13:31;;;;;;;15.50;13.90;;;;;;;8.97;100.00;97940.50;108928;1260;59994;-73
2024/03/11 07:15:58;;;;;;;17.20;15.40;;;;;;;9.12;100.00;97943.95;108876;1260;65275;-73
2024/03/11 07:18:26;;;;;;;15.20;13.70;;;;;;;9.28;100.00;97945.75;108888;1260;59151;-73
2024/03/11 07:20:55;;;;;;;17.80;15.90;;;;;;;9.45;100.00;97946.36;108932;1260;59212;-74
2024/03/11 07:23:21;;;;;;;15.70;14.00;;;;;;;9.62;100.00;97939.83;108933;1260;65274;-74
2024/03/11 07:25:48;;;;;;;16.10;14.50;;;;;;;9.77;100.00;97942.36;108903;1260;59180;-73
2024/03/11 07:28:14;;;;;;;18.70;16.70;;;;;;;9.91;100.00;97940.38;108920;1260;59008;-74
2024/03/11 07:30:41;;;;;;;15.80;14.30;;;;;;;10.06;100.00;97940.89;108889;1260;59425;-74
2024/03/11 07:33:09;;;;;;;17.30;14.90;;;;;;;10.22;100.00;97942.84;108929;1260;59244;-73
2024/03/11 07:35:37;;;;;;;15.80;14.20;;;;;;;10.34;100.00;97944.34;108877;1260;65747;-74
2024/03/11 07:38:07;;;;;;;16.20;14.50;;;;;;;10.47;100.00;97948.74;108878;1260;59825;-74
2024/03/11 07:40:35;;;;;;;17.10;13.50;;;;;;;10.57;100.00;97948.96;108917;1260;64160;-73
2024/03/11 07:43:03;;;;;;;12.80;11.50;;;;;;;10.70;100.00;97952.31;108903;1260;60690;-74
2024/03/11 07:45:29;;;;;;;13.50;12.10;;;;;;;10.76;100.00;97953.09;108939;1261;59242;-74
2024/03/11 07:47:56;;;;;;;13.50;12.20;;;;;;;10.76;100.00;97956.11;108864;1260;66131;-74
2024/03/11 07:50:23;;;;;;;13.20;11.90;;;;;;;10.70;100.00;97953.58;108907;1260;59439;-74
2024/03/11 07:52:50;;;;;;;19.50;15.30;;;;;;;10.63;100.00;97960.78;108912;1260;64079;-73
2024/03/11 07:55:17;;;;;;;15.70;13.90;;;;;;;10.60;100.00;97962.25;108861;1261;59313;-74
2024/03/11 07:57:47;;;;;;;15.90;12.50;;;;;;;10.59;100.00;97968.59;108866;1261;59053;-74
2024/03/11 08:00:18;;;;;;;12.90;11.60;;;;;;;10.59;100.00;97966.05;108917;1260;64617;-74
2024/03/11 08:02:45;;;;;;;20.70;16.60;;;;;;;10.57;100.00;97963.20;108883;1260;60127;-74
2024/03/11 08:05:14;;;;;;;15.90;13.30;;;;;;;10.56;100.00;97965.59;108889;1260;64026;-73
2024/03/11 08:07:45;;;;;;;14.90;12.50;;;;;;;10.56;100.00;97969.30;108883;1260;59066;-73
2024/03/11 08:10:12;;;;;;;15.70;13.90;;;;;;;10.58;100.00;97968.27;108914;1263;59359;-73
2024/03/11 08:12:41;;;;;;;14.80;13.20;;;;;;;10.62;100.00;97970.44;108907;1260;66030;-74
2024/03/11 08:15:14;;;;;;;18.50;15.90;;;;;;;10.61;100.00;97978.11;108890;1260;59338;-74
2024/03/11 08:17:42;;;;;;;19.20;16.00;;;;;;;10.63;100.00;97979.38;108923;1260;62513;-73
2024/03/11 08:20:21;;;;;;;19.80;17.40;;;;;;;10.69;100.00;97975.67;108715;1261;58977;-73
2024/03/11 08:22:52;;;;;;;15.40;13.80;;;;;;;10.71;100.00;97973.95;108895;1260;59010;-73
2024/03/11 08:25:22;;;;;;;16.90;15.20;;;;;;;10.67;100.00;97978.38;108914;1260;65724;-74
2024/03/11 08:27:51;;;;;;;;;;;;;;;10.68;100.00;97975.96;108941;1261;59038;-74
2024/03/11 08:30:20;;;;;;;16.20;14.50;;;;;;;10.72;100.00;97978.45;108870;1260;63059;-74
2024/03/11 08:32:47;;;;;;;15.90;14.10;;;;;;;10.77;100.00;97977.16;108893;1260;59056;-74
2024/03/11 08:35:25;;;;;;;21.90;19.70;;;;;;;10.79;100.00;97981.83;108913;1260;59020;-74
2024/03/11 08:37:52;;;;;;;19.70;16.40;;;;;;;10.79;100.00;97982.20;108832;1260;65681;-74
2024/03/11 08:40:19;;;;;;;18.20;16.30;;;;;;;10.81;100.00;97986.04;108893;1260;59814;-74
2024/03/11 08:42:48;;;;;;;25.20;22.70;;;;;;;10.84;100.00;97981.34;108753;1260;63781;-74
2024/03/11 08:45:23;;;;;;;17.80;16.00;;;;;;;10.92;100.00;97985.47;108814;1260;58958;-74
2024/03/11 08:47:51;;;;;;;16.00;14.30;;;;;;;11.00;100.00;97988.89;108874;1261;59251;-73
2024/03/11 08:50:17;;;;;;;15.40;14.00;;;;;;;10.98;100.00;97986.39;108933;1260;65773;-73
2024/03/11 08:52:48;;;;;;;15.10;13.60;;;;;;;10.87;100.00;97981.45;108894;1260;59841;-73
2024/03/11 08:55:15;;;;;;;19.80;17.60;;;;;;;10.78;100.00;97985.42;108888;1260;64131;-73
2024/03/11 08:57:42;;;;;;;16.80;15.00;;;;;;;10.71;100.00;97988.98;108867;1260;59105;-73
2024/03/11 09:00:11;;;;;;;15.30;13.90;;;;;;;10.65;100.00;97993.93;108904;1260;59133;-73
2024/03/11 09:02:38;;;;;;;17.00;15.40;;;;;;;10.59;100.00;97998.75;108923;1260;65840;-73
2024/03/11 09:05:12;;;;;;;17.00;15.20;;;;;;;10.53;100.00;97996.33;108890;1260;59847;-73
2024/03/11 09:07:40;;;;;;;16.90;15.10;;;;;;;10.49;100.00;97996.73;108891;1260;62494;-73
2024/03/11 09:10:07;;;;;;;15.60;14.10;;;;;;;10.41;100.00;97994.70;108849;1260;59649;-73
2024/03/11 09:12:35;;;;;;;17.70;15.70;;;;;;;10.33;100.00;98003.48;108868;1261;59069;-72
2024/03/11 09:15:01;;;;;;;16.30;14.70;;;;;;;10.34;100.00;98002.55;108901;1260;66646;-72
2024/03/11 09:17:28;;;;;;;16.80;15.10;;;;;;;10.41;100.00;98003.77;108909;1260;59825;-72
2024/03/11 09:19:54;;;;;;;16.90;15.20;;;;;;;10.49;100.00;98005.98;108889;1260;59057;-73
2024/03/11 09:22:21;;;;;;;17.10;15.50;;;;;;;10.63;100.00;98003.95;108886;1260;59069;-73
2024/03/11 09:24:48;;;;;;;16.00;13.90;;;;;;;10.81;100.00;98003.16;108928;1260;59081;-72
2024/03/11 09:27:17;;;;;;;16.60;14.90;;;;;;;10.97;100.00;98002.12;108710;1260;64783;-73
2024/03/11 09:29:45;;;;;;;17.30;15.60;;;;;;;11.12;100.00;97998.88;108909;1260;60258;-72
2024/03/11 09:32:11;;;;;;;19.40;16.00;;;;;;;11.25;100.00;97993.34;108905;1260;64138;-72
2024/03/11 09:34:38;;;;;;;19.20;16.20;;;;;;;11.36;100.00;97990.43;108894;1260;59028;-73
2024/03/11 09:37:04;;;;;;;17.80;15.90;;;;;;;11.50;100.00;97990.70;108913;1260;58962;-73
2024/03/11 09:39:31;;;;;;;21.30;19.00;;;;;;;11.65;100.00;97992.36;108892;1260;66128;-73
2024/03/11 09:42:10;;;;;;;21.40;19.20;;;;;;;11.74;100.00;97989.62;108927;1260;60014;-73
2024/03/11 09:44:39;;;;;;;19.50;17.40;;;;;;;11.73;100.00;97993.47;108810;1260;141099;-73
2024/03/11 09:47:07;;;;;;;19.80;17.60;;;;;;;11.63;100.00;97994.46;108918;1260;59031;-73
2024/03/11 09:49:35;;;;;;;18.90;17.00;;;;;;;11.60;100.00;97999.52;108917;1260;58986;-73
2024/03/11 09:52:01;;;;;;;18.10;16.40;;;;;;;11.63;100.00;97996.09;108908;1260;66066;-73
2024/03/11 09:54:28;;;;;;;21.70;18.00;;;;;;;11.65;100.00;97996.30;108909;1260;60170;-73
2024/03/11 09:56:55;;;;;;;21.90;19.00;;;;;;;11.70;100.00;97998.17;108900;1261;64040;-73
2024/03/11 09:59:25;;;;;;;19.60;17.40;;;;;;;11.76;100.00;97994.13;108885;1260;60394;-73
2024/03/11 10:01:52;;;;;;;;;;;;;;;11.81;100.00;97989.02;108782;1260;58923;-73
2024/03/11 10:04:21;;;;;;;17.50;15.60;;;;;;;11.84;100.00;97983.76;108960;1260;64544;-72
2024/03/11 10:06:58;;;;;;;17.90;16.20;;;;;;;11.89;100.00;97986.80;108943;1260;61323;-73
2024/03/11 10:09:25;;;;;;;17.10;15.30;;;;;;;11.92;100.00;97981.88;108905;1260;64492;-73
2024/03/11 10:12:07;;;;;;;17.90;16.20;;;;;;;12.01;100.00;97981.00;108911;1260;59336;-72
2024/03/11 10:14:35;;;;;;;17.60;15.60;;;;;;;12.10;100.00;97982.89;108912;1260;59728;-73
2024/03/11 10:17:21;;;;;;;19.40;17.50;;;;;;;12.16;100.00;97980.10;108944;1260;65803;-73
2024/03/11 10:19:56;;;;;;;19.80;16.10;;;;;;;12.24;100.00;97982.03;108930;1260;59972;-73
2024/03/11 10:22:28;;;;;;;20.10;18.20;;;;;;;12.26;100.00;97985.20;108905;1260;64103;-72
2024/03/11 10:24:58;;;;;;;19.40;17.20;;;;;;;12.30;100.00;97977.91;108906;1260;59122;-73
2024/03/11 10:27:33;;;;;;;20.10;18.00;;;;;;;12.37;100.00;97975.52;108886;1260;59083;-74
2024/03/11 10:30:19;;;;;;;19.70;17.70;;;;;;;12.46;100.00;97976.43;108718;1260;66177;-73
2024/03/11 10:32:45;;;;;;;20.00;18.00;;;;;;;12.51;100.00;97976.16;108934;1260;60520;-73
2024/03/11 10:35:20;;;;;;;19.30;17.20;;;;;;;12.54;100.00;97974.48;108884;1260;64064;-73
2024/03/11 10:37:50;;;;;;;18.30;16.30;;;;;;;12.58;100.00;97974.88;108887;1260;59235;-73
2024/03/11 10:40:21;;;;;;;19.60;17.10;;;;;;;12.61;100.00;97977.76;108929;1260;58988;-73
2024/03/11 10:42:54;;;;;;;18.90;16.80;;;;;;;12.66;100.00;97974.25;108941;1260;66120;-73
2024/03/11 10:45:29;;;;;;;17.80;16.10;;;;;;;12.69;100.00;97970.92;108766;1260;59877;-73
2024/03/11 10:48:00;;;;;;;18.30;16.40;;;;;;;12.70;100.00;97969.09;108892;1260;62647;-74
2024/03/11 10:50:32;;;;;;;19.80;18.00;;;;;;;12.73;100.00;97971.81;108890;1260;58935;-72
2024/03/11 10:52:59;;;;;;;19.50;17.70;;;;;;;12.84;100.00;97972.62;108864;1260;59304;-73
2024/03/11 10:55:32;;;;;;;19.90;18.00;;;;;;;12.90;100.00;97974.90;108907;1260;67059;-73
2024/03/11 10:58:03;;;;;;;18.80;17.00;;;;;;;12.92;100.00;97976.67;108923;1260;59965;-75
2024/03/11 11:00:34;;;;;;;18.00;16.20;;;;;;;12.99;100.00;97977.66;108910;1260;64171;-74
2024/03/11 11:03:08;;;;;;;18.40;16.20;;;;;;;13.01;100.00;97976.58;108891;1260;59099;-73
2024/03/11 11:05:46;;;;;;;19.10;17.10;;;;;;;12.95;100.00;97973.74;108907;1260;59020;-73
2024/03/11 11:08:14;;;;;;;16.60;14.90;;;;;;;12.91;100.00;97974.13;108924;1260;66516;-73
2024/03/11 11:10:42;;;;;;;17.20;15.20;;;;;;;12.93;100.00;97975.68;108821;1260;59425;-73
2024/03/11 11:13:09;;;;;;;16.50;14.80;;;;;;;12.99;100.00;97977.00;108873;1260;62846;-74